Terminal Aerodrome Forecast
Issued by NWS

Home | Current Version | Previous Version | Text Only | Print | Product List | Glossary On
Versions: 1 2 3 4 5 6 7 8 9 10 11 12 13 14 15 16 17 18 19
621
FTUS41 KCAR 222339
TAFPQI
TAF
KPQI 222339Z 2300/2324 27006KT P6SM FEW070
     FM231100 16004KT P6SM SCT080 BKN250
     FM231300 16006KT P6SM OVC090
     FM231600 17010KT 5SM -RA BR OVC025
     FM231800 17010G18KT 2SM -RA BR OVC008=

USA.gov is the U.S. government's official web portal to all federal, state and local government web resources and services.